Salinas Municipal Airport
KSNS : now visible

Airfield :











YOU CAN JOIN US ON...

 
LOGIN :

Register | Disclaimer

   EN    FR    IT 

 









Legend :    VFR   Marginal VFR   IFR   Intensive IFR   Very Intensive IFR
Visi :
Ceiling :
>= 8 km
>= 3000ft
5 to 8 km
1000 to 3000 ft
1500m to 5 km
500 to 1000 ft
800 to 1500m
200 to 500 ft
< 800m
< 200 ft
Symbols :   Thunderstorms  Fog  Heavy snow  Heavy precipitations  Wind > 20 kt






- Airport Elevation : 85 ft


KSNS - Salinas Municipal

CURRENT METAR :
  • 172353Z 31011KT 9SM CLR 23/12 A2977 RMK AO2 SLP089 T02330117 10289 20228 58005

EXPIRED METARs :
  • 172253Z 32012KT 9SM CLR 24/12 A2978 RMK AO2 SLP092 T02390122
  • 172153Z 33014KT 9SM CLR 24/12 A2978 RMK AO2 SLP091 T02390117

TAF KSNS
Valid from the 18 at 00:00 until the 19 at 00:00 UTC


172334Z 1800/1824 32012KT P6SM FEW200
FM180400 31006KT P6SM FEW200
FM180800 VRB03KT 6SM HZ FEW200
FM181300 VRB03KT 5SM BR SCT002 SCT200
FM181600 VRB03KT P6SM FEW200
FM182100 31014KT P6SM SKC
KZOA FIR / North America



MET'MAP, your aeronautical weather chart ! - Copyright ORBIFLY December 2007 - Disclaimer

ORBIFLY MET'MAP TEAM :

Programming & Development : Alexandra Zaïnal
Concept & original design : Baudouin d'Aumeries
Assistance for programming : Marc-Olivier Méhu
Technical & hardware support : Manuel Goepfert

Contact : metmap@orbifly.com




SOURCES & CREDITS :

   NOAA       Earth
Advisory